Time;durP1;ratioP1;P1;durP2;ratioP2;P2;SDS_P1;SDS_P2;PMS_P1;PMS_P2;Temp;Humidity;BMP_temperature;BMP_pressure;BME280_temperature;BME280_humidity;BME280_pressure;Samples;Min_cycle;Max_cycle;Signal;HPM_P1;HPM_P2
2022/11/19 00:02:04;;;;;;;82.15;52.55;;;8.30;99.90;;;;;;5003150;28;20108;-77
2022/11/19 00:04:31;;;;;;;92.18;59.38;;;8.30;99.90;;;;;;5001795;28;20042;-78
2022/11/19 00:06:59;;;;;;;98.18;58.42;;;8.20;99.90;;;;;;5002669;28;20038;-77
2022/11/19 00:09:26;;;;;;;93.43;58.53;;;8.20;99.90;;;;;;5002901;28;20124;-79
2022/11/19 00:14:40;;;;;;;96.13;60.28;;;8.10;99.90;;;;;;5025690;28;20102;-82
2022/11/19 00:17:07;;;;;;;110.38;66.30;;;8.10;99.90;;;;;;4993894;28;20058;-82
2022/11/19 00:19:34;;;;;;;125.78;75.03;;;8.00;99.90;;;;;;4991997;28;20051;-81
2022/11/19 00:22:02;;;;;;;133.48;79.32;;;7.90;99.90;;;;;;5008415;28;20101;-83
2022/11/19 00:24:29;;;;;;;132.45;80.85;;;7.80;99.90;;;;;;5023764;28;20122;-80
2022/11/19 00:26:56;;;;;;;129.52;77.30;;;7.70;99.90;;;;;;4994098;28;20564;-81
2022/11/19 00:29:23;;;;;;;102.80;62.38;;;7.60;99.90;;;;;;4984274;28;20478;-82
2022/11/19 00:31:52;;;;;;;100.00;60.83;;;7.70;99.90;;;;;;5002305;28;20498;-82
2022/11/19 00:34:19;;;;;;;103.18;63.50;;;7.80;99.90;;;;;;5001323;28;20038;-81
2022/11/19 00:36:46;;;;;;;119.72;67.05;;;7.70;99.90;;;;;;5004473;28;20104;-82
2022/11/19 00:39:14;;;;;;;102.20;60.50;;;7.60;99.90;;;;;;5003680;28;20103;-82
2022/11/19 00:41:41;;;;;;;109.20;63.13;;;7.50;99.90;;;;;;5002223;28;20050;-83
2022/11/19 00:44:08;;;;;;;105.35;63.00;;;7.60;99.90;;;;;;5000829;28;20050;-82
2022/11/19 00:46:36;;;;;;;105.03;62.60;;;7.50;99.90;;;;;;5001740;28;20077;-82
2022/11/19 00:49:04;;;;;;;136.52;71.00;;;7.50;99.90;;;;;;5002313;28;20124;-82
2022/11/19 00:51:32;;;;;;;191.85;73.05;;;7.40;99.90;;;;;;5002022;28;20678;-83
2022/11/19 00:53:59;;;;;;;160.05;66.95;;;7.40;99.90;;;;;;5004546;28;20555;-83
2022/11/19 00:56:27;;;;;;;264.70;80.82;;;7.40;99.90;;;;;;5007305;28;20194;-84
2022/11/19 00:58:55;;;;;;;280.25;81.82;;;7.30;99.90;;;;;;5002011;28;20070;-82
2022/11/19 01:01:25;;;;;;;171.35;72.72;;;7.20;99.90;;;;;;5002824;28;20088;-84
2022/11/19 01:03:54;;;;;;;125.10;63.53;;;7.20;99.90;;;;;;5001895;28;20383;-83
2022/11/19 01:06:25;;;;;;;132.02;59.33;;;7.20;99.90;;;;;;5002373;28;20092;-82
2022/11/19 01:08:53;;;;;;;201.20;69.55;;;7.20;99.90;;;;;;5001336;28;20046;-81
2022/11/19 01:11:23;;;;;;;278.48;78.97;;;7.20;99.90;;;;;;5001466;28;20038;-83
2022/11/19 01:13:51;;;;;;;337.02;89.28;;;7.10;99.90;;;;;;4999017;28;20046;-83
2022/11/19 01:16:20;;;;;;;163.02;68.15;;;7.10;99.90;;;;;;5001666;28;20066;-81
2022/11/19 01:18:49;;;;;;;153.30;72.55;;;7.00;99.90;;;;;;5000275;28;20060;-79
2022/11/19 01:21:17;;;;;;;116.45;59.13;;;7.00;99.90;;;;;;5000119;28;20148;-80
2022/11/19 01:23:46;;;;;;;112.97;57.28;;;7.00;99.90;;;;;;5000726;28;20128;-81
2022/11/19 01:26:14;;;;;;;107.20;58.55;;;6.90;99.90;;;;;;5001356;28;20038;-81
2022/11/19 01:28:42;;;;;;;135.27;65.88;;;7.00;99.90;;;;;;5000854;28;20081;-82
2022/11/19 01:31:11;;;;;;;129.65;63.75;;;6.90;99.90;;;;;;4984783;28;20050;-81
2022/11/19 01:33:38;;;;;;;104.25;56.95;;;7.00;99.90;;;;;;4999417;28;20124;-81
2022/11/19 01:36:08;;;;;;;110.40;57.95;;;7.00;99.90;;;;;;5001275;28;20121;-81
2022/11/19 01:38:36;;;;;;;80.93;46.97;;;7.00;99.90;;;;;;5001030;28;20046;-80
2022/11/19 01:41:06;;;;;;;82.68;46.70;;;7.00;99.90;;;;;;5000846;28;20445;-79
2022/11/19 01:43:42;;;;;;;81.88;46.35;;;7.00;99.90;;;;;;5000206;28;20041;-79
2022/11/19 01:46:10;;;;;;;73.80;42.38;;;7.00;99.90;;;;;;4999970;28;20073;-79
2022/11/19 01:48:40;;;;;;;70.05;40.80;;;7.00;99.90;;;;;;4983773;28;20140;-79
2022/11/19 01:51:12;;;;;;;75.72;41.95;;;6.90;99.90;;;;;;5000681;28;20038;-79
2022/11/19 01:53:40;;;;;;;71.78;42.63;;;6.90;99.90;;;;;;4999952;28;20041;-80
2022/11/19 01:56:10;;;;;;;76.45;43.38;;;6.80;99.90;;;;;;5001123;28;20112;-80
2022/11/19 01:58:40;;;;;;;67.93;40.40;;;6.80;99.90;;;;;;5000363;28;20069;-81
2022/11/19 02:01:09;;;;;;;106.75;58.30;;;6.70;99.90;;;;;;4982782;28;20134;-81
2022/11/19 02:03:38;;;;;;;85.18;45.80;;;6.60;99.90;;;;;;4982485;28;20043;-80
2022/11/19 02:06:06;;;;;;;78.07;44.25;;;6.60;99.90;;;;;;5000350;28;20053;-79
2022/11/19 02:08:38;;;;;;;77.10;41.45;;;6.60;99.90;;;;;;5000707;28;20072;-80
2022/11/19 02:11:29;;;;;;;67.88;39.83;;;6.60;99.90;;;;;;5000170;28;20073;-80
2022/11/19 02:14:08;;;;;;;58.70;34.92;;;6.60;99.90;;;;;;4991590;28;20571;-80
2022/11/19 02:16:44;;;;;;;65.85;38.28;;;6.50;99.90;;;;;;5001041;28;20046;-79
2022/11/19 02:19:29;;;;;;;66.05;38.40;;;6.50;99.90;;;;;;4999648;28;20034;-80
2022/11/19 02:22:12;;;;;;;72.13;43.15;;;6.60;99.90;;;;;;5000176;28;20060;-79
2022/11/19 02:24:51;;;;;;;71.88;43.50;;;6.60;99.90;;;;;;5000336;28;20108;-81
2022/11/19 02:27:55;;;;;;;75.95;41.80;;;6.50;99.90;;;;;;4999811;28;20655;-79
2022/11/19 02:30:24;;;;;;;77.22;39.92;;;6.50;99.90;;;;;;4999180;28;20099;-80
2022/11/19 02:32:59;;;;;;;76.28;38.00;;;6.40;99.90;;;;;;4997581;28;20042;-80
2022/11/19 02:35:45;;;;;;;77.22;40.22;;;6.40;99.90;;;;;;4999463;28;20038;-81
2022/11/19 02:38:21;;;;;;;81.18;40.17;;;6.40;99.90;;;;;;4999156;28;20069;-81
2022/11/19 02:40:55;;;;;;;85.55;46.55;;;6.40;99.90;;;;;;4998654;28;20702;-82
2022/11/19 02:43:30;;;;;;;79.63;43.63;;;6.40;99.90;;;;;;4998631;28;20128;-81
2022/11/19 02:46:03;;;;;;;79.93;44.38;;;6.40;99.90;;;;;;4999382;28;20042;-79
2022/11/19 02:48:36;;;;;;;83.97;43.92;;;6.30;99.90;;;;;;4999755;28;20153;-77
2022/11/19 02:51:04;;;;;;;83.45;43.85;;;6.30;99.90;;;;;;4999098;28;20046;-79
2022/11/19 02:53:32;;;;;;;73.80;40.60;;;6.30;99.90;;;;;;4999713;28;20046;-81
2022/11/19 02:56:11;;;;;;;71.80;37.78;;;6.20;99.90;;;;;;5000088;28;20053;-82
2022/11/19 03:04:32;;;;;;;63.45;34.22;;;6.10;99.90;;;;;;4998205;28;20044;-81
2022/11/19 03:07:04;;;;;;;50.40;29.73;;;6.10;99.90;;;;;;4999531;28;20100;-80
2022/11/19 03:09:35;;;;;;;48.03;27.17;;;6.00;99.90;;;;;;4999591;28;20104;-83
2022/11/19 03:12:14;;;;;;;58.33;31.13;;;6.10;99.90;;;;;;4998971;28;20204;-81
2022/11/19 03:17:46;;;;;;;46.33;25.00;;;6.10;99.90;;;;;;5000251;28;20562;-82
2022/11/19 03:20:21;;;;;;;49.65;28.00;;;6.10;99.90;;;;;;5000231;28;20068;-80
2022/11/19 03:22:52;;;;;;;60.72;31.75;;;6.00;99.90;;;;;;4998919;28;20504;-81
2022/11/19 03:25:25;;;;;;;60.00;32.17;;;5.90;99.90;;;;;;4998901;28;20065;-81
2022/11/19 03:27:56;;;;;;;54.47;29.77;;;5.80;99.90;;;;;;5000207;28;20085;-80
2022/11/19 03:30:24;;;;;;;59.20;31.92;;;5.80;99.90;;;;;;5002244;28;20038;-81
2022/11/19 03:32:57;;;;;;;57.22;32.40;;;5.90;99.90;;;;;;5000963;28;20101;-79
2022/11/19 03:35:29;;;;;;;57.00;30.45;;;5.90;99.90;;;;;;5000292;28;20043;-79
2022/11/19 03:38:01;;;;;;;53.72;31.88;;;5.80;99.90;;;;;;4998644;28;20069;-80
2022/11/19 03:40:31;;;;;;;49.30;29.45;;;5.90;99.90;;;;;;5000154;28;20518;-80
2022/11/19 03:43:01;;;;;;;45.30;25.15;;;5.90;99.90;;;;;;4998842;28;20294;-79
2022/11/19 03:45:35;;;;;;;36.13;22.40;;;6.00;99.90;;;;;;5002233;28;20740;-79
2022/11/19 03:48:05;;;;;;;37.45;23.27;;;5.90;99.90;;;;;;5002685;28;20045;-81
2022/11/19 03:53:45;;;;;;;46.50;27.63;;;5.90;99.90;;;;;;4961189;28;20079;-77
2022/11/19 03:56:28;;;;;;;52.13;27.70;;;5.90;99.90;;;;;;4996501;28;20065;-76
2022/11/19 03:59:01;;;;;;;52.30;29.10;;;5.90;99.90;;;;;;4987799;28;20498;-75
2022/11/19 04:11:00;;;;;;;55.35;33.53;;;5.80;99.90;;;;;;5191405;23;20097;-80
2022/11/19 04:13:27;;;;;;;54.10;33.50;;;5.70;99.90;;;;;;5005726;28;20101;-81
2022/11/19 04:15:54;;;;;;;60.50;34.40;;;5.70;99.90;;;;;;5003486;28;20089;-80
2022/11/19 04:18:22;;;;;;;51.83;31.08;;;5.70;99.90;;;;;;5003196;28;20088;-81
2022/11/19 04:20:49;;;;;;;49.78;29.55;;;5.70;99.90;;;;;;5001200;28;20046;-80
2022/11/19 04:23:16;;;;;;;51.78;29.65;;;5.70;99.90;;;;;;5002367;28;20485;-79
2022/11/19 04:25:46;;;;;;;55.42;31.35;;;5.70;99.90;;;;;;5003005;28;20150;-80
2022/11/19 04:28:15;;;;;;;55.45;31.27;;;5.70;99.90;;;;;;5002042;28;20394;-82
2022/11/19 04:30:43;;;;;;;52.33;29.67;;;5.80;99.90;;;;;;5001728;28;20049;-80
2022/11/19 04:33:10;;;;;;;52.25;25.83;;;5.80;99.90;;;;;;5001199;28;20034;-79
2022/11/19 04:35:37;;;;;;;55.65;28.30;;;5.80;99.90;;;;;;5002075;28;20045;-80
2022/11/19 04:38:04;;;;;;;56.20;30.63;;;5.90;99.90;;;;;;5001795;28;20044;-79
2022/11/19 04:40:32;;;;;;;62.13;32.05;;;6.00;99.90;;;;;;5001401;28;20038;-80
2022/11/19 04:42:59;;;;;;;54.63;30.38;;;6.00;99.90;;;;;;4993802;28;20428;-79
2022/11/19 04:45:28;;;;;;;51.08;25.77;;;6.00;99.90;;;;;;5001980;28;20043;-81
2022/11/19 04:47:55;;;;;;;46.92;25.42;;;6.00;99.90;;;;;;5001765;28;20062;-80
2022/11/19 04:50:23;;;;;;;52.88;29.20;;;6.10;99.90;;;;;;5000312;28;20551;-81
2022/11/19 04:52:50;;;;;;;64.22;35.53;;;6.10;99.90;;;;;;5002176;28;20038;-80
2022/11/19 04:55:17;;;;;;;60.53;33.38;;;6.10;99.90;;;;;;5001052;28;20113;-79
2022/11/19 04:57:44;;;;;;;60.38;31.52;;;6.10;99.90;;;;;;5001641;28;20101;-80
2022/11/19 05:00:13;;;;;;;55.67;30.33;;;6.10;99.90;;;;;;4999712;28;20077;-81
2022/11/19 05:02:42;;;;;;;53.53;28.73;;;6.10;99.90;;;;;;5001730;28;20065;-81
2022/11/19 05:05:09;;;;;;;64.25;32.03;;;6.10;99.90;;;;;;5001447;28;20153;-79
2022/11/19 05:07:36;;;;;;;62.33;30.67;;;6.10;99.90;;;;;;5002451;28;20050;-80
2022/11/19 05:10:04;;;;;;;60.13;33.03;;;6.10;99.90;;;;;;5001301;28;20541;-81
2022/11/19 05:12:32;;;;;;;56.25;32.25;;;6.10;99.90;;;;;;5000413;28;20157;-80
2022/11/19 05:14:59;;;;;;;56.97;29.95;;;6.10;99.90;;;;;;4993613;28;20072;-80
2022/11/19 05:17:26;;;;;;;57.35;30.10;;;6.20;99.90;;;;;;5002120;28;20092;-81
2022/11/19 05:19:55;;;;;;;57.80;29.95;;;6.20;99.90;;;;;;5001404;28;20047;-81
2022/11/19 05:22:22;;;;;;;61.63;33.58;;;6.30;99.90;;;;;;5001667;28;20052;-81
2022/11/19 05:24:50;;;;;;;57.70;33.40;;;6.30;99.90;;;;;;5000528;28;20169;-80
2022/11/19 05:27:17;;;;;;;52.40;31.65;;;6.30;99.90;;;;;;5001464;28;20042;-79
2022/11/19 05:29:44;;;;;;;49.75;31.30;;;6.30;99.90;;;;;;4999514;28;20125;-82
2022/11/19 05:32:12;;;;;;;54.30;32.13;;;6.30;99.90;;;;;;5001531;28;20485;-80
2022/11/19 05:34:39;;;;;;;53.90;32.88;;;6.30;99.90;;;;;;5001302;28;20033;-80
2022/11/19 05:37:08;;;;;;;56.00;34.20;;;6.20;99.90;;;;;;5000441;28;20042;-80
2022/11/19 05:39:35;;;;;;;57.58;34.60;;;6.30;99.90;;;;;;5000047;28;20140;-79
2022/11/19 05:42:02;;;;;;;65.10;38.63;;;6.30;99.90;;;;;;5000685;28;20107;-79
2022/11/19 05:44:30;;;;;;;64.30;38.45;;;6.30;99.90;;;;;;5000276;28;20070;-80
2022/11/19 05:46:58;;;;;;;63.03;37.78;;;6.40;99.90;;;;;;5001800;28;20092;-81
2022/11/19 05:49:25;;;;;;;62.25;39.22;;;6.40;99.90;;;;;;4999000;28;20109;-80
2022/11/19 05:51:53;;;;;;;68.20;41.30;;;6.40;99.90;;;;;;5000898;28;20128;-82
2022/11/19 05:54:22;;;;;;;64.03;37.25;;;6.40;99.90;;;;;;5001251;28;20131;-81
2022/11/19 05:56:49;;;;;;;62.53;36.15;;;6.40;99.90;;;;;;5001234;28;20046;-82
2022/11/19 05:59:16;;;;;;;62.90;35.92;;;6.40;99.90;;;;;;4999789;28;20121;-79
2022/11/19 06:01:43;;;;;;;59.80;36.47;;;6.50;99.90;;;;;;5000820;28;20073;-79
2022/11/19 06:04:11;;;;;;;64.13;36.13;;;6.50;99.90;;;;;;5000635;28;20092;-80
2022/11/19 06:06:38;;;;;;;60.80;36.38;;;6.50;99.90;;;;;;4999526;28;20100;-79
2022/11/19 06:09:06;;;;;;;64.00;36.70;;;6.60;99.90;;;;;;5000017;28;20137;-80
2022/11/19 06:14:23;;;;;;;65.95;39.30;;;6.60;99.90;;;;;;4993641;28;20069;-81
2022/11/19 06:16:51;;;;;;;63.00;38.20;;;6.60;99.90;;;;;;4999752;28;20073;-81
2022/11/19 06:19:19;;;;;;;60.88;37.33;;;6.60;99.90;;;;;;4998460;28;20049;-80
2022/11/19 06:21:47;;;;;;;70.63;38.13;;;6.60;99.90;;;;;;4999244;28;20046;-83
2022/11/19 06:24:14;;;;;;;72.60;40.03;;;6.70;99.90;;;;;;5000671;28;20144;-83
2022/11/19 06:26:43;;;;;;;75.53;45.60;;;6.80;99.90;;;;;;4999080;28;20042;-83
2022/11/19 06:29:11;;;;;;;77.32;46.08;;;6.80;99.90;;;;;;4998378;28;20069;-83
2022/11/19 06:31:38;;;;;;;83.47;45.45;;;6.90;99.90;;;;;;4998237;28;20034;-83
2022/11/19 06:34:06;;;;;;;80.82;46.58;;;6.90;99.90;;;;;;4997558;28;20052;-82
2022/11/19 06:36:33;;;;;;;87.50;51.72;;;6.80;99.90;;;;;;4999600;28;20905;-83
2022/11/19 06:39:01;;;;;;;93.32;53.45;;;6.90;99.90;;;;;;4996313;28;20132;-82
2022/11/19 06:41:28;;;;;;;104.82;60.60;;;6.80;99.90;;;;;;4998721;28;20494;-82
2022/11/19 06:43:56;;;;;;;112.53;64.90;;;6.80;99.90;;;;;;4998008;28;20043;-81
2022/11/19 06:46:24;;;;;;;109.05;63.35;;;6.80;99.90;;;;;;4998939;28;20120;-81
2022/11/19 06:48:51;;;;;;;116.53;68.60;;;6.90;99.90;;;;;;4997880;28;20501;-80
2022/11/19 06:51:18;;;;;;;128.07;81.10;;;6.90;99.90;;;;;;4999043;28;20120;-82
2022/11/19 06:53:46;;;;;;;119.07;74.80;;;7.00;99.90;;;;;;4999987;28;20134;-82
2022/11/19 06:56:13;;;;;;;117.75;70.68;;;7.00;99.90;;;;;;4999346;28;20047;-80
2022/11/19 06:58:40;;;;;;;104.95;63.70;;;7.00;99.90;;;;;;4999556;28;20031;-83
2022/11/19 07:01:10;;;;;;;107.05;63.20;;;7.00;99.90;;;;;;5000070;28;20042;-79
2022/11/19 07:03:37;;;;;;;107.03;65.03;;;7.00;99.90;;;;;;4998942;28;20506;-81
2022/11/19 07:06:05;;;;;;;118.88;68.50;;;7.00;99.90;;;;;;4998847;28;20122;-78
2022/11/19 07:08:34;;;;;;;109.60;66.60;;;7.00;99.90;;;;;;4999505;28;20046;-81
2022/11/19 07:11:24;;;;;;;113.03;64.68;;;7.00;99.90;;;;;;4988984;28;20560;-81
2022/11/19 07:13:59;;;;;;;112.25;63.75;;;7.10;99.90;;;;;;4999618;28;20034;-80
2022/11/19 07:16:30;;;;;;;119.20;71.10;;;7.10;99.90;;;;;;5000342;28;20053;-81
2022/11/19 07:18:58;;;;;;;122.40;69.50;;;7.20;99.90;;;;;;5001108;28;20129;-81
2022/11/19 07:21:27;;;;;;;124.82;74.60;;;7.30;99.90;;;;;;5006897;28;20057;-81
2022/11/19 07:23:54;;;;;;;147.20;84.65;;;7.30;99.90;;;;;;5004959;28;20084;-81
2022/11/19 07:26:22;;;;;;;132.77;79.30;;;7.40;99.90;;;;;;5010056;28;20100;-81
2022/11/19 07:28:49;;;;;;;127.55;77.15;;;7.40;99.90;;;;;;5007031;28;20058;-82
2022/11/19 07:31:17;;;;;;;132.55;78.00;;;7.40;99.90;;;;;;5006979;28;20034;-81
2022/11/19 07:33:45;;;;;;;121.47;74.25;;;7.40;99.90;;;;;;5009449;28;20026;-82
2022/11/19 07:36:13;;;;;;;132.10;77.72;;;7.50;99.90;;;;;;5007238;28;20046;-81
2022/11/19 07:38:40;;;;;;;118.22;71.65;;;7.50;99.90;;;;;;5007212;28;20044;-82
2022/11/19 07:42:48;;;;;;;118.68;71.35;;;7.50;99.90;;;;;;5004147;28;20076;-81
2022/11/19 07:43:54;;;;;;;133.20;80.80;;;7.60;99.90;;;;;;5009775;28;20053;-81
2022/11/19 07:46:22;;;;;;;156.65;89.63;;;7.60;99.90;;;;;;5013237;28;20489;-82
2022/11/19 07:48:54;;;;;;;170.20;97.88;;;7.80;99.90;;;;;;5018909;28;20052;-81
2022/11/19 07:51:22;;;;;;;140.52;83.00;;;7.80;99.90;;;;;;5003040;28;20100;-81
2022/11/19 07:53:49;;;;;;;128.88;71.78;;;7.90;99.90;;;;;;5022993;28;20046;-81
2022/11/19 07:56:17;;;;;;;108.93;61.22;;;7.90;99.90;;;;;;4985850;28;20054;-81
2022/11/19 07:58:44;;;;;;;101.05;58.13;;;7.90;99.90;;;;;;5001053;28;20038;-80
2022/11/19 08:01:16;;;;;;;120.25;74.00;;;7.90;99.90;;;;;;5003341;28;20073;-81
2022/11/19 08:03:46;;;;;;;131.50;75.18;;;7.90;99.90;;;;;;5004483;28;20037;-82
2022/11/19 08:06:16;;;;;;;118.90;73.28;;;7.90;99.90;;;;;;5010877;28;20043;-82
2022/11/19 08:08:44;;;;;;;112.28;71.35;;;8.00;99.90;;;;;;5005338;28;20046;-79
2022/11/19 08:11:13;;;;;;;115.43;71.75;;;8.10;99.90;;;;;;5003440;28;20556;-80
2022/11/19 08:13:40;;;;;;;102.35;64.35;;;8.10;99.90;;;;;;5005528;28;20030;-80
2022/11/19 08:16:10;;;;;;;93.88;59.28;;;8.30;99.90;;;;;;5005426;28;20516;-79
2022/11/19 08:18:37;;;;;;;89.63;54.20;;;8.40;99.90;;;;;;5009931;28;20038;-79
2022/11/19 08:21:05;;;;;;;73.53;47.50;;;8.50;99.90;;;;;;5015319;28;20073;-79
2022/11/19 08:23:34;;;;;;;104.63;69.30;;;8.50;99.90;;;;;;5019239;28;20065;-77
2022/11/19 08:26:02;;;;;;;110.68;71.53;;;8.50;99.90;;;;;;5007082;28;20050;-80
2022/11/19 08:28:30;;;;;;;112.55;71.65;;;8.50;99.90;;;;;;5007066;28;20053;-79
2022/11/19 08:31:06;;;;;;;113.35;72.28;;;8.60;99.90;;;;;;5010531;28;20065;-80
2022/11/19 08:33:36;;;;;;;116.40;73.40;;;8.50;99.90;;;;;;5012054;28;20042;-79
2022/11/19 08:36:05;;;;;;;121.97;80.53;;;8.60;99.90;;;;;;5012076;28;20126;-78
2022/11/19 08:38:37;;;;;;;118.50;74.15;;;8.60;99.90;;;;;;5010757;28;20118;-78
2022/11/19 19:18:25;;;;;;;8.77;5.35;;;9.00;99.90;;;;;;5291994;23;20057;-76
2022/11/19 19:20:52;;;;;;;7.88;4.65;;;9.00;99.90;;;;;;5012514;28;20042;-77
2022/11/19 19:23:20;;;;;;;21.25;11.50;;;9.00;99.90;;;;;;5012883;28;20151;-78
2022/11/19 19:25:47;;;;;;;18.15;9.68;;;9.00;99.90;;;;;;5013206;28;20042;-77
2022/11/19 19:28:14;;;;;;;10.05;5.53;;;9.10;99.90;;;;;;5005382;28;20038;-77
2022/11/19 19:30:42;;;;;;;14.80;8.70;;;9.00;99.90;;;;;;5003787;28;20037;-78
2022/11/19 19:33:09;;;;;;;13.10;6.95;;;9.00;99.90;;;;;;5001902;28;20046;-79
2022/11/19 19:35:39;;;;;;;13.48;7.75;;;8.90;99.90;;;;;;5000684;28;20045;-77
2022/11/19 19:38:06;;;;;;;12.00;6.60;;;8.90;99.90;;;;;;5000417;28;20074;-78
2022/11/19 19:40:34;;;;;;;12.00;7.78;;;8.90;99.90;;;;;;5001683;28;20045;-77
2022/11/19 19:43:04;;;;;;;16.98;8.85;;;8.80;99.90;;;;;;5001894;28;20046;-78
2022/11/19 19:45:34;;;;;;;17.48;9.40;;;8.80;99.90;;;;;;4984874;28;20485;-76
2022/11/19 19:48:02;;;;;;;14.57;8.73;;;8.80;99.90;;;;;;4984853;28;20077;-77
2022/11/19 19:50:29;;;;;;;12.13;7.28;;;8.70;99.90;;;;;;4999865;28;20042;-79
2022/11/19 19:52:59;;;;;;;13.50;7.65;;;8.70;99.90;;;;;;5001278;28;20088;-78
2022/11/19 19:55:26;;;;;;;15.90;8.65;;;8.70;99.90;;;;;;5002744;28;20038;-78
2022/11/19 19:57:54;;;;;;;16.08;8.32;;;8.80;99.90;;;;;;5001480;28;20117;-77
2022/11/19 20:00:22;;;;;;;10.70;7.00;;;8.80;99.90;;;;;;5003938;28;20061;-76
2022/11/19 20:02:49;;;;;;;12.63;7.05;;;8.80;99.90;;;;;;5001852;28;20056;-76
2022/11/19 20:05:17;;;;;;;19.60;9.73;;;8.70;99.90;;;;;;5001482;28;20061;-78
2022/11/19 20:07:44;;;;;;;20.80;10.43;;;8.70;99.90;;;;;;5003478;28;20069;-78
2022/11/19 20:10:13;;;;;;;14.63;7.18;;;8.70;99.90;;;;;;5003627;28;20482;-77
2022/11/19 20:15:25;;;;;;;10.77;4.93;;;8.60;99.90;;;;;;4985779;28;20088;-78
2022/11/19 20:17:53;;;;;;;6.82;4.40;;;8.60;99.90;;;;;;4999269;28;20141;-76
2022/11/19 20:20:20;;;;;;;7.75;4.55;;;8.50;99.90;;;;;;5001059;28;20037;-76
2022/11/19 20:22:47;;;;;;;9.93;5.25;;;8.50;99.90;;;;;;5000977;28;20038;-76
2022/11/19 20:25:16;;;;;;;7.82;4.53;;;8.50;99.90;;;;;;4999455;28;20074;-76
2022/11/19 20:27:44;;;;;;;9.45;4.90;;;8.60;99.90;;;;;;5001426;28;20092;-77
2022/11/19 20:30:12;;;;;;;9.88;6.13;;;8.50;99.90;;;;;;5001843;28;20043;-75
2022/11/19 20:32:40;;;;;;;7.13;4.47;;;8.60;99.90;;;;;;5001965;28;20038;-77
2022/11/19 20:35:07;;;;;;;9.40;5.22;;;8.50;99.90;;;;;;5002202;28;20038;-75
2022/11/19 20:37:35;;;;;;;8.98;5.20;;;8.60;99.90;;;;;;5001628;28;20128;-77
2022/11/19 20:40:02;;;;;;;9.73;4.80;;;8.60;99.90;;;;;;5001799;28;20037;-76
2022/11/19 20:45:17;;;;;;;7.13;4.80;;;8.60;99.90;;;;;;4976740;28;20049;-76
2022/11/19 20:47:45;;;;;;;9.02;5.10;;;8.60;99.90;;;;;;5001506;28;20120;-77
2022/11/19 20:50:12;;;;;;;9.23;5.72;;;8.70;99.90;;;;;;5001763;28;20038;-75
2022/11/19 20:52:39;;;;;;;9.55;6.15;;;8.70;99.90;;;;;;5001463;28;20057;-76
2022/11/19 20:55:08;;;;;;;11.30;6.30;;;8.70;99.90;;;;;;4999923;28;20268;-77
2022/11/19 20:57:36;;;;;;;12.95;7.10;;;8.70;99.90;;;;;;5002153;28;20041;-77
2022/11/19 21:00:05;;;;;;;48.65;30.38;;;8.70;99.90;;;;;;5001915;28;20057;-76
2022/11/19 21:02:32;;;;;;;12.38;7.25;;;8.70;99.90;;;;;;5000711;28;20477;-76
2022/11/19 21:04:59;;;;;;;14.63;7.60;;;8.70;99.90;;;;;;4987896;28;20438;-77
2022/11/19 21:07:26;;;;;;;13.55;7.85;;;8.70;99.90;;;;;;5002174;28;20093;-79
2022/11/19 21:09:54;;;;;;;20.35;10.48;;;8.70;99.90;;;;;;5000173;28;20489;-77
2022/11/19 21:12:21;;;;;;;22.33;12.30;;;8.60;99.90;;;;;;5003131;28;20523;-77
2022/11/19 21:14:50;;;;;;;22.60;12.50;;;8.70;99.90;;;;;;5000130;28;20058;-78
2022/11/19 21:17:17;;;;;;;21.20;11.60;;;8.60;99.90;;;;;;5001627;28;20041;-78
2022/11/19 21:19:45;;;;;;;28.20;13.95;;;8.60;99.90;;;;;;5000377;28;20501;-78
2022/11/19 21:22:12;;;;;;;23.70;12.65;;;8.60;99.90;;;;;;4999466;28;20054;-77
2022/11/19 21:24:39;;;;;;;21.42;12.25;;;8.60;99.90;;;;;;4999666;28;20042;-77
2022/11/19 21:27:06;;;;;;;20.83;12.30;;;8.60;99.90;;;;;;4998940;28;20050;-78
2022/11/19 21:29:34;;;;;;;19.63;11.20;;;8.60;99.90;;;;;;4998850;28;20030;-79
2022/11/19 21:32:04;;;;;;;15.63;10.05;;;8.60;99.90;;;;;;5000923;28;20531;-78
2022/11/19 21:34:32;;;;;;;24.48;14.32;;;8.60;99.90;;;;;;5001487;28;20041;-79
2022/11/19 21:36:59;;;;;;;22.15;13.50;;;8.60;99.90;;;;;;4999712;28;20042;-78
2022/11/19 21:39:27;;;;;;;25.30;14.85;;;8.50;99.90;;;;;;5001120;28;20034;-79
2022/11/19 21:41:55;;;;;;;23.00;13.77;;;8.50;99.90;;;;;;5002451;28;20042;-77
2022/11/19 21:44:23;;;;;;;25.25;14.77;;;8.50;99.90;;;;;;5001538;28;20044;-77
2022/11/19 21:46:50;;;;;;;22.00;14.10;;;8.50;99.90;;;;;;5000769;28;20039;-76
2022/11/19 21:49:19;;;;;;;26.15;14.07;;;8.50;99.90;;;;;;5001019;28;20039;-78
2022/11/19 21:51:47;;;;;;;24.02;14.50;;;8.50;99.90;;;;;;5000647;28;20100;-78
2022/11/19 21:54:15;;;;;;;22.88;15.68;;;8.50;99.90;;;;;;4999917;28;20035;-78
2022/11/19 21:56:42;;;;;;;21.55;13.70;;;8.50;99.90;;;;;;4997870;28;20070;-76
2022/11/19 21:59:09;;;;;;;18.83;12.50;;;8.50;99.90;;;;;;5000351;28;20934;-76
2022/11/19 22:01:36;;;;;;;22.60;14.10;;;8.50;99.90;;;;;;5000995;28;20074;-77
2022/11/19 22:04:04;;;;;;;18.98;12.82;;;8.50;99.90;;;;;;4998533;28;20046;-76
2022/11/19 22:06:33;;;;;;;22.80;16.52;;;8.60;99.90;;;;;;5000584;28;20141;-78
2022/11/19 22:09:00;;;;;;;21.65;15.23;;;8.60;99.90;;;;;;4999696;28;20065;-77
2022/11/19 22:11:30;;;;;;;29.92;20.27;;;8.70;99.90;;;;;;5000855;28;20100;-77
2022/11/19 22:13:58;;;;;;;15.82;11.07;;;8.70;99.90;;;;;;5000031;28;20042;-77
2022/11/19 22:16:26;;;;;;;18.38;11.70;;;8.80;99.90;;;;;;5001077;28;20042;-76
2022/11/19 22:18:53;;;;;;;15.35;10.82;;;8.80;99.90;;;;;;5001487;28;20108;-78
2022/11/19 22:21:20;;;;;;;13.32;9.85;;;8.90;99.90;;;;;;5001092;28;20489;-77
2022/11/19 22:23:49;;;;;;;15.70;10.43;;;8.90;99.90;;;;;;4999849;28;20038;-77
2022/11/19 22:26:16;;;;;;;12.85;8.68;;;8.80;99.90;;;;;;5000200;28;20046;-77
2022/11/19 22:28:43;;;;;;;7.95;4.90;;;8.80;99.90;;;;;;5008378;28;20038;-80
2022/11/19 22:31:12;;;;;;;19.70;12.80;;;8.80;99.90;;;;;;5017060;28;20049;-76
2022/11/19 22:33:40;;;;;;;10.43;7.43;;;8.70;99.90;;;;;;5016414;28;20046;-77
2022/11/19 22:36:09;;;;;;;17.02;10.18;;;8.70;99.90;;;;;;5001668;28;20045;-80
2022/11/19 22:38:38;;;;;;;13.40;8.25;;;8.80;99.90;;;;;;5004853;28;20033;-78
2022/11/19 22:41:09;;;;;;;16.08;10.55;;;8.70;99.90;;;;;;5001245;28;20049;-81
2022/11/19 22:43:38;;;;;;;12.07;7.63;;;8.70;99.90;;;;;;5000648;28;20165;-80
2022/11/19 22:46:07;;;;;;;11.27;7.82;;;8.60;99.90;;;;;;5002119;28;20458;-80
2022/11/19 22:48:35;;;;;;;9.55;6.90;;;8.60;99.90;;;;;;4998483;28;20127;-78
2022/11/19 22:51:06;;;;;;;9.30;5.85;;;8.50;99.90;;;;;;5000302;28;20108;-79
2022/11/19 22:53:34;;;;;;;10.30;6.40;;;8.60;99.90;;;;;;4999738;28;20478;-79
2022/11/19 22:56:02;;;;;;;10.20;6.53;;;8.60;99.90;;;;;;4980946;28;20124;-78
2022/11/19 22:58:31;;;;;;;9.45;6.30;;;8.60;99.90;;;;;;4997658;28;20443;-81
2022/11/19 23:00:58;;;;;;;8.65;6.03;;;8.70;99.90;;;;;;5000659;28;20046;-80
2022/11/19 23:03:26;;;;;;;9.45;7.00;;;8.60;99.90;;;;;;4999755;28;20038;-79
2022/11/19 23:05:54;;;;;;;7.43;5.50;;;8.70;99.90;;;;;;5000145;28;20073;-78
2022/11/19 23:08:22;;;;;;;9.60;6.22;;;8.70;99.90;;;;;;4999233;28;20147;-78
2022/11/19 23:10:57;;;;;;;11.20;6.10;;;8.70;99.90;;;;;;4999108;28;20046;-80
2022/11/19 23:13:32;;;;;;;10.73;6.82;;;8.70;99.90;;;;;;4999622;28;20555;-80
2022/11/19 23:16:04;;;;;;;9.90;6.63;;;8.70;99.90;;;;;;4999988;28;20469;-80
2022/11/19 23:18:33;;;;;;;9.70;6.85;;;8.60;99.90;;;;;;4996580;28;20096;-80
2022/11/19 23:21:02;;;;;;;9.90;6.60;;;8.60;99.90;;;;;;4998581;28;20089;-80
2022/11/19 23:23:29;;;;;;;9.27;5.53;;;8.60;99.90;;;;;;5000218;28;20070;-79
2022/11/19 23:25:57;;;;;;;9.15;5.13;;;8.60;99.90;;;;;;4999709;28;20088;-80
2022/11/19 23:28:25;;;;;;;9.00;6.25;;;8.50;99.90;;;;;;4999550;28;20093;-79
2022/11/19 23:30:53;;;;;;;10.27;5.97;;;8.50;99.90;;;;;;4998458;28;20398;-77
2022/11/19 23:33:22;;;;;;;8.98;5.53;;;8.50;99.90;;;;;;4999926;28;20054;-78
2022/11/19 23:35:49;;;;;;;7.47;5.15;;;8.50;99.90;;;;;;5000181;28;20049;-81
2022/11/19 23:38:17;;;;;;;7.18;5.38;;;8.50;99.90;;;;;;5001564;28;20125;-78
2022/11/19 23:40:44;;;;;;;7.97;5.72;;;8.50;99.90;;;;;;5005000;28;20528;-80
2022/11/19 23:43:11;;;;;;;8.05;5.45;;;8.50;99.90;;;;;;5002419;28;20461;-80
2022/11/19 23:45:39;;;;;;;10.98;6.20;;;8.50;99.90;;;;;;4999727;28;20038;-79
2022/11/19 23:48:06;;;;;;;7.25;4.78;;;8.50;99.90;;;;;;4998940;28;20042;-81
2022/11/19 23:50:35;;;;;;;6.15;3.85;;;8.60;99.90;;;;;;5001457;28;20038;-81
2022/11/19 23:53:02;;;;;;;5.78;4.00;;;8.60;99.90;;;;;;4982653;28;20046;-80
2022/11/19 23:55:29;;;;;;;5.22;4.03;;;8.60;99.90;;;;;;4998531;28;20115;-80
2022/11/19 23:57:57;;;;;;;6.82;4.50;;;8.70;99.90;;;;;;4998657;28;20478;-81
